Time;durP1;ratioP1;P1;durP2;ratioP2;P2;SDS_P1;SDS_P2;PMS_P1;PMS_P2;Temp;Humidity;BMP_temperature;BMP_pressure;BME280_temperature;BME280_humidity;BME280_pressure;Samples;Min_cycle;Max_cycle;Signal;HPM_P1;HPM_P2
2022/04/20 00:02:14;;;;;;;;;;;8.40;99.90;;;;;;5176299;27;19919;-64
2022/04/20 00:04:39;;;;;;;;;;;7.80;99.90;;;;;;5176153;27;19918;-65
2022/04/20 00:07:05;;;;;;;;;;;9.10;99.90;;;;;;5176118;27;19919;-64
2022/04/20 00:09:30;;;;;;;;;;;7.80;99.90;;;;;;5175822;27;20332;-64
2022/04/20 00:11:56;;;;;;;;;;;7.70;99.90;;;;;;5176055;27;19976;-64
2022/04/20 00:14:22;;;;;;;;;;;7.20;99.90;;;;;;5175995;27;20281;-65
2022/04/20 00:16:47;;;;;;;;;;;7.60;99.90;;;;;;5176026;27;20237;-64
2022/04/20 00:19:13;;;;;;;;;;;7.90;99.90;;;;;;5176003;27;19923;-66
2022/04/20 00:21:38;;;;;;;;;;;7.50;99.90;;;;;;5175954;27;20278;-64
2022/04/20 00:24:04;;;;;;;;;;;7.20;99.90;;;;;;5175893;27;19969;-64
2022/04/20 00:26:30;;;;;;;;;;;7.30;99.90;;;;;;5175837;27;19918;-64
2022/04/20 00:28:55;;;;;;;;;;;7.30;99.90;;;;;;5175850;27;19919;-64
2022/04/20 00:31:21;;;;;;;;;;;7.20;99.90;;;;;;5156974;27;20409;-64
2022/04/20 00:33:46;;;;;;;;;;;7.20;99.90;;;;;;5175744;27;19918;-64
2022/04/20 00:36:12;;;;;;;;;;;7.00;99.90;;;;;;5175829;27;19918;-64
2022/04/20 00:38:38;;;;;;;;;;;7.20;99.90;;;;;;5175714;27;20456;-64
2022/04/20 00:41:03;;;;;;;;;;;7.00;99.90;;;;;;5157014;27;19922;-66
2022/04/20 00:43:29;;;;;;;;;;;7.60;99.90;;;;;;5156822;27;19926;-65
2022/04/20 00:45:55;;;;;;;;;;;6.90;99.90;;;;;;5175299;27;19926;-65
2022/04/20 00:48:20;;;;;;;;;;;6.70;99.90;;;;;;5175284;27;19926;-65
2022/04/20 00:50:46;;;;;;;;;;;7.00;99.90;;;;;;5175512;27;19926;-64
2022/04/20 00:53:11;;;;;;;;;;;6.80;99.90;;;;;;5175577;27;19918;-65
2022/04/20 00:55:37;;;;;;;;;;;7.70;99.90;;;;;;5175583;27;20013;-65
2022/04/20 00:58:03;;;;;;;;;;;6.80;99.90;;;;;;5175536;27;20327;-65
2022/04/20 01:00:29;;;;;;;;;;;7.00;99.90;;;;;;5175557;27;19922;-65
2022/04/20 01:02:55;;;;;;;;;;;7.70;99.90;;;;;;5175461;27;19971;-65
2022/04/20 01:05:21;;;;;;;;;;;6.80;99.90;;;;;;5156929;27;19919;-65
2022/04/20 01:07:47;;;;;;;;;;;6.70;99.90;;;;;;5156939;27;20321;-64
2022/04/20 01:10:13;;;;;;;;;;;6.80;99.90;;;;;;5175324;27;19919;-65
2022/04/20 01:12:39;;;;;;;;;;;6.40;99.90;;;;;;5175369;27;19926;-64
2022/04/20 01:15:05;;;;;;;;;;;6.70;99.90;;;;;;5175097;27;19977;-64
2022/04/20 01:17:30;;;;;;;;;;;6.50;99.90;;;;;;5175355;27;19919;-64
2022/04/20 01:19:57;;;;;;;;;;;7.30;99.90;;;;;;5175368;27;20261;-64
2022/04/20 01:22:22;;;;;;;;;;;6.50;99.90;;;;;;5175300;27;19918;-65
2022/04/20 01:24:48;;;;;;;;;;;7.30;99.90;;;;;;5175310;27;19957;-64
2022/04/20 01:27:14;;;;;;;;;;;6.90;99.90;;;;;;5175240;27;20009;-65
2022/04/20 01:29:40;;;;;;;;;;;6.60;99.90;;;;;;5156585;27;20342;-65
2022/04/20 01:32:06;;;;;;;;;;;7.40;99.90;;;;;;5175277;27;19926;-65
2022/04/20 01:34:33;;;;;;;;;;;6.20;99.90;;;;;;5156578;27;19979;-65
2022/04/20 01:36:58;;;;;;;;;;;6.60;99.90;;;;;;5175497;27;20092;-64
2022/04/20 01:39:24;;;;;;;;;;;6.70;99.90;;;;;;5175456;27;20386;-65
2022/04/20 01:41:49;;;;;;;;;;;6.40;99.90;;;;;;5175112;27;19919;-65
2022/04/20 01:44:15;;;;;;;;;;;8.00;99.90;;;;;;5175084;27;19919;-65
2022/04/20 01:46:41;;;;;;;;;;;7.10;99.90;;;;;;5175003;27;19922;-64
2022/04/20 01:49:06;;;;;;;;;;;6.60;99.90;;;;;;5175029;27;19918;-64
2022/04/20 01:51:47;;;;;;;;;;;6.10;99.90;;;;;;5156306;27;19919;-64
2022/04/20 01:54:13;;;;;;;;;;;7.00;99.90;;;;;;5176414;27;19918;-64
2022/04/20 01:56:39;;;;;;;;;;;6.20;99.90;;;;;;5178421;27;20370;-64
2022/04/20 01:59:04;;;;;;;;;;;6.30;99.90;;;;;;5178655;27;19929;-65
2022/04/20 02:04:14;;;;;;;;;;;6.00;99.90;;;;;;5178603;27;19918;-65
2022/04/20 02:06:39;;;;;;;;;;;6.30;99.90;;;;;;5178491;27;19922;-65
2022/04/20 02:09:05;;;;;;;;;;;6.20;99.90;;;;;;5178174;27;20001;-64
2022/04/20 02:11:31;;;;;;;;;;;6.10;99.90;;;;;;5159521;27;19919;-65
2022/04/20 02:13:58;;;;;;;;;;;5.90;99.90;;;;;;5178415;27;20284;-64
2022/04/20 02:16:23;;;;;;;;;;;6.10;99.90;;;;;;5178401;27;19926;-64
2022/04/20 02:18:49;;;;;;;;;;;5.90;99.90;;;;;;5178344;27;20605;-64
2022/04/20 02:21:15;;;;;;;;;;;5.90;99.90;;;;;;5178247;27;19931;-65
2022/04/20 02:23:41;;;;;;;;;;;6.00;99.90;;;;;;5159707;27;20358;-63
2022/04/20 02:26:06;;;;;;;;;;;6.00;99.90;;;;;;5177790;27;19963;-64
2022/04/20 02:28:32;;;;;;;;;;;5.80;99.90;;;;;;5159489;27;19926;-64
2022/04/20 02:30:57;;;;;;;;;;;6.30;99.90;;;;;;5177816;27;20354;-64
2022/04/20 02:33:23;;;;;;;;;;;5.70;99.90;;;;;;5159408;27;19926;-64
2022/04/20 02:35:49;;;;;;;;;;;5.90;99.90;;;;;;5178283;27;20395;-64
2022/04/20 02:38:15;;;;;;;;;;;6.00;99.90;;;;;;5177872;27;19922;-63
2022/04/20 02:40:41;;;;;;;;;;;6.10;99.90;;;;;;5177844;27;19929;-65
2022/04/20 02:43:07;;;;;;;;;;;5.70;99.90;;;;;;5177774;27;19918;-64
2022/04/20 02:45:33;;;;;;;;;;;6.00;99.90;;;;;;5159123;27;19918;-64
2022/04/20 02:47:59;;;;;;;;;;;5.90;99.90;;;;;;5177393;27;20001;-64
2022/04/20 02:50:25;;;;;;;;;;;5.60;99.90;;;;;;5177630;27;19967;-65
2022/04/20 02:52:51;;;;;;;;;;;5.80;99.90;;;;;;5177621;27;19923;-64
2022/04/20 02:55:16;;;;;;;;;;;6.00;99.90;;;;;;5177550;27;19925;-64
2022/04/20 02:57:42;;;;;;;;;;;5.70;99.90;;;;;;5177549;27;19922;-64
2022/04/20 03:00:07;;;;;;;;;;;5.90;99.90;;;;;;5177449;27;19923;-64
2022/04/20 03:02:33;;;;;;;;;;;5.60;99.90;;;;;;5141644;27;19978;-64
2022/04/20 03:04:59;;;;;;;;;;;5.80;99.90;;;;;;5177239;27;19980;-65
2022/04/20 03:07:24;;;;;;;;;;;;;;;;;;5177008;27;19922;-64
2022/04/20 03:09:50;;;;;;;;;;;5.60;99.90;;;;;;5177191;27;19929;-66
2022/04/20 03:12:16;;;;;;;;;;;5.40;99.90;;;;;;5177215;27;19923;-65
2022/04/20 03:14:42;;;;;;;;;;;5.70;99.90;;;;;;5177158;27;19942;-65
2022/04/20 03:17:08;;;;;;;;;;;5.60;99.90;;;;;;5177432;27;20013;-64
2022/04/20 03:19:33;;;;;;;;;;;5.60;99.90;;;;;;5158359;27;20023;-64
2022/04/20 03:21:59;;;;;;;;;;;5.60;99.90;;;;;;5176946;27;19919;-65
2022/04/20 03:24:24;;;;;;;;;;;5.30;99.90;;;;;;5177336;27;19919;-64
2022/04/20 03:26:50;;;;;;;;;;;5.40;99.90;;;;;;5141235;27;20318;-64
2022/04/20 03:29:16;;;;;;;;;;;5.50;99.90;;;;;;5158543;27;20254;-65
2022/04/20 03:31:41;;;;;;;;;;;5.60;99.90;;;;;;5154347;27;20393;-64
2022/04/20 03:34:07;;;;;;;;;;;5.30;99.90;;;;;;5155871;27;20341;-64
2022/04/20 03:36:34;;;;;;;;;;;5.20;99.90;;;;;;5155933;27;19919;-64
2022/04/20 03:39:00;;;;;;;;;;;5.30;99.90;;;;;;5155772;27;19926;-64
2022/04/20 03:41:26;;;;;;;;;;;5.30;99.90;;;;;;5155741;27;19981;-64
2022/04/20 03:43:52;;;;;;;;;;;5.30;99.90;;;;;;5155721;27;19966;-64
2022/04/20 03:46:17;;;;;;;;;;;5.30;99.90;;;;;;5155640;27;19967;-64
2022/04/20 03:48:45;;;;;;;;;;;5.30;99.90;;;;;;5154682;27;19930;-64
2022/04/20 03:51:11;;;;;;;;;;;5.30;99.90;;;;;;5155621;27;19930;-65
2022/04/20 03:53:36;;;;;;;;;;;5.40;99.90;;;;;;5154257;27;19919;-64
2022/04/20 03:56:02;;;;;;;;;;;5.20;99.90;;;;;;5155434;27;19919;-64
2022/04/20 03:58:27;;;;;;;;;;;5.40;99.90;;;;;;5155492;27;19923;-64
2022/04/20 04:00:53;;;;;;;;;;;5.40;99.90;;;;;;5155350;27;19972;-64
2022/04/20 04:03:19;;;;;;;;;;;5.00;99.90;;;;;;5155664;27;19926;-64
2022/04/20 04:05:44;;;;;;;;;;;5.30;99.90;;;;;;5155385;27;20434;-64
2022/04/20 04:08:10;;;;;;;;;;;5.10;99.90;;;;;;5155169;27;20373;-64
2022/04/20 04:10:36;;;;;;;;;;;5.20;99.90;;;;;;5153947;27;20430;-64
2022/04/20 04:13:01;;;;;;;;;;;5.50;99.90;;;;;;5155198;27;20013;-64
2022/04/20 04:15:28;;;;;;;;;;;5.00;99.90;;;;;;5155228;27;19919;-64
2022/04/20 04:18:00;;;;;;;;;;;4.90;99.90;;;;;;5154648;27;20009;-64
2022/04/20 04:20:28;;;;;;;;;;;5.10;99.90;;;;;;5155130;27;19919;-64
2022/04/20 04:22:54;;;;;;;;;;;4.90;99.90;;;;;;5155085;27;19919;-64
2022/04/20 04:25:20;;;;;;;;;;;5.10;99.90;;;;;;5155137;27;20402;-64
2022/04/20 04:27:47;;;;;;;;;;;5.20;99.90;;;;;;5155020;27;19991;-64
2022/04/20 04:30:12;;;;;;;;;;;5.00;99.90;;;;;;5154591;27;19926;-65
2022/04/20 04:32:38;;;;;;;;;;;;;;;;;;5173858;27;19919;-65
2022/04/20 04:35:05;;;;;;;;;;;5.30;99.90;;;;;;5175790;27;20016;-64
2022/04/20 04:37:31;;;;;;;;;;;4.80;99.90;;;;;;5175774;27;19919;-64
2022/04/20 04:39:56;;;;;;;;;;;5.10;99.90;;;;;;5175705;27;19930;-64
2022/04/20 04:42:22;;;;;;;;;;;4.90;99.90;;;;;;5175692;27;19918;-64
2022/04/20 04:44:48;;;;;;;;;;;5.00;99.90;;;;;;5175728;27;19923;-63
2022/04/20 04:50:03;;;;;;;;;;;5.10;99.90;;;;;;5135758;27;19922;-64
2022/04/20 04:52:29;;;;;;;;;;;5.10;99.90;;;;;;5175574;27;19919;-64
2022/04/20 04:54:54;;;;;;;;;;;5.20;99.90;;;;;;5175557;27;20338;-63
2022/04/20 04:57:20;;;;;;;;;;;5.00;99.90;;;;;;5175517;27;20293;-64
2022/04/20 04:59:45;;;;;;;;;;;5.20;99.90;;;;;;5175462;27;20297;-63
2022/04/20 05:02:11;;;;;;;;;;;5.00;99.90;;;;;;5175486;27;19922;-64
2022/04/20 05:04:37;;;;;;;;;;;5.10;99.90;;;;;;5175541;27;19985;-65
2022/04/20 05:07:03;;;;;;;;;;;5.40;99.90;;;;;;5156839;27;20363;-64
2022/04/20 05:09:29;;;;;;;;;;;5.40;99.90;;;;;;5175470;27;20029;-64
2022/04/20 05:11:55;;;;;;;;;;;5.40;99.90;;;;;;5175282;27;20017;-64
2022/04/20 05:14:20;;;;;;;;;;;5.40;99.90;;;;;;5156835;27;19977;-63
2022/04/20 05:16:46;;;;;;;;;;;5.30;99.90;;;;;;5175332;27;19925;-63
2022/04/20 05:19:12;;;;;;;;;;;;;;;;;;5175285;27;19923;-63
2022/04/20 05:21:37;;;;;;;;;;;5.60;99.90;;;;;;5175344;27;19926;-63
2022/04/20 05:24:03;;;;;;;;;;;5.20;99.90;;;;;;5175013;27;19918;-64
2022/04/20 05:26:29;;;;;;;;;;;5.40;99.90;;;;;;5175335;27;19926;-63
2022/04/20 05:28:55;;;;;;;;;;;5.70;99.90;;;;;;5176182;27;19999;-64
2022/04/20 05:31:20;;;;;;;;;;;5.50;99.90;;;;;;5160034;27;20010;-64
2022/04/20 05:33:46;;;;;;;;;;;5.40;99.90;;;;;;5179146;27;19926;-63
2022/04/20 05:36:12;;;;;;;;;;;5.80;99.90;;;;;;5179120;27;20341;-64
2022/04/20 05:41:40;;;;;;;;;;;6.10;99.90;;;;;;5185529;27;19918;-64
2022/04/20 05:44:10;;;;;;;;;;;6.10;99.90;;;;;;5195107;27;19918;-64
2022/04/20 05:46:36;;;;;;;;;;;6.00;99.90;;;;;;5193808;27;19918;-64
2022/04/20 05:49:02;;;;;;;;;;;6.30;99.90;;;;;;5194471;27;19919;-64
2022/04/20 05:51:28;;;;;;;;;;;6.20;99.90;;;;;;5194609;27;19977;-65
2022/04/20 05:53:53;;;;;;;;;;;6.30;99.90;;;;;;5194597;27;20001;-63
2022/04/20 05:56:19;;;;;;;;;;;6.90;99.90;;;;;;5167027;27;19926;-65
2022/04/20 05:58:47;;;;;;;;;;;6.80;99.90;;;;;;5194705;27;19918;-66
2022/04/20 06:01:14;;;;;;;;;;;7.00;99.90;;;;;;5194700;27;19922;-64
2022/04/20 06:03:40;;;;;;;;;;;7.20;99.90;;;;;;5178018;27;20362;-65
2022/04/20 06:06:05;;;;;;;;;;;6.80;99.90;;;;;;5175517;27;19925;-64
2022/04/20 06:08:31;;;;;;;;;;;7.20;99.90;;;;;;5176877;27;19956;-64
2022/04/20 06:11:00;;;;;;;;;;;7.10;99.90;;;;;;5193045;27;19969;-64
2022/04/20 06:13:27;;;;;;;;;;;7.60;99.90;;;;;;5193903;27;20373;-69
2022/04/20 06:15:53;;;;;;;;;;;8.50;99.90;;;;;;5174612;27;20027;-67
2022/04/20 06:18:19;;;;;;;;;;;7.80;99.90;;;;;;5176224;27;19932;-66
2022/04/20 06:20:44;;;;;;;;;;;7.90;99.90;;;;;;5176600;27;20280;-64
2022/04/20 06:23:10;;;;;;;;;;;7.50;99.90;;;;;;5176150;27;19918;-63
2022/04/20 06:25:35;;;;;;;;;;;8.00;99.90;;;;;;5174030;27;19918;-64
2022/04/20 06:28:02;;;;;;;;;;;8.20;99.90;;;;;;5176449;27;19918;-63
2022/04/20 06:30:28;;;;;;;;;;;7.90;99.90;;;;;;5157636;27;19934;-64
2022/04/20 06:32:54;;;;;;;;;;;8.30;99.90;;;;;;5175872;27;19944;-64
2022/04/20 06:35:20;;;;;;;;;;;8.10;99.90;;;;;;5177026;27;19918;-64
2022/04/20 06:37:45;;;;;;;;;;;8.50;99.90;;;;;;5176638;27;20457;-65
2022/04/20 06:40:11;;;;;;;;;;;8.30;99.90;;;;;;5191813;27;19926;-67
2022/04/20 06:42:37;;;;;;;;;;;8.30;99.90;;;;;;5195468;27;19923;-66
2022/04/20 06:45:02;;;;;;;;;;;8.60;99.90;;;;;;5179761;27;20017;-65
2022/04/20 06:47:29;;;;;;;;;;;8.40;99.90;;;;;;5180001;27;20012;-68
2022/04/20 06:49:55;;;;;;;;;;;8.70;99.90;;;;;;5198688;27;19918;-66
2022/04/20 07:00:33;;;;;;;;;;;9.60;99.90;;;;;;5198607;27;19967;-66
2022/04/20 07:03:00;;;;;;;;;;;9.90;99.90;;;;;;5198475;27;20334;-65
2022/04/20 07:05:26;;;;;;;;;;;9.20;99.90;;;;;;5198487;27;19918;-65
2022/04/20 07:07:51;;;;;;;;;;;9.70;99.90;;;;;;5198452;27;19918;-65
2022/04/20 07:10:17;;;;;;;;;;;9.30;99.90;;;;;;5198280;27;19922;-64
2022/04/20 07:12:42;;;;;;;;;;;9.70;99.90;;;;;;5179532;27;19978;-65
2022/04/20 07:15:08;;;;;;;;;;;10.00;99.90;;;;;;5198251;27;20020;-67
2022/04/20 07:17:33;;;;;;;;;;;9.40;99.90;;;;;;5198191;27;20010;-66
2022/04/20 07:20:01;;;;;;;;;;;10.60;99.90;;;;;;5198169;27;19941;-67
2022/04/20 07:22:27;;;;;;;;;;;10.10;99.90;;;;;;5198204;27;20013;-65
2022/04/20 07:24:52;;;;;;;;;;;10.70;99.90;;;;;;5198026;27;20352;-65
2022/04/20 07:27:18;;;;;;;;;;;10.30;99.90;;;;;;5197708;27;20289;-65
2022/04/20 07:29:43;;;;;;;;;;;10.00;99.90;;;;;;5197958;27;19930;-71
2022/04/20 07:32:09;;;;;;;;;;;10.20;99.90;;;;;;5197681;27;19918;-65
2022/04/20 07:34:35;;;;;;;;;;;10.40;99.90;;;;;;5197879;27;19943;-64
2022/04/20 07:37:00;;;;;;;;;;;10.30;99.90;;;;;;5197868;27;19919;-66
2022/04/20 07:39:26;;;;;;;;;;;11.50;99.90;;;;;;5178934;27;19918;-66
2022/04/20 07:41:51;;;;;;;;;;;10.80;99.90;;;;;;5197744;27;19965;-65
2022/04/20 07:44:17;;;;;;;;;;;10.80;99.90;;;;;;5178989;27;20320;-67
2022/04/20 07:46:42;;;;;;;;;;;11.00;99.90;;;;;;5197695;27;19945;-67
2022/04/20 07:51:57;;;;;;;;;;;10.90;99.90;;;;;;5166089;27;19965;-66
2022/04/20 07:54:22;;;;;;;;;;;10.90;99.90;;;;;;5197475;27;19992;-66
2022/04/20 07:56:48;;;;;;;;;;;11.10;99.90;;;;;;5197540;27;19933;-65
2022/04/20 07:59:13;;;;;;;;;;;11.60;99.90;;;;;;5197092;27;19929;-66
2022/04/20 08:01:40;;;;;;;;;;;11.80;99.90;;;;;;5197671;27;20006;-66
2022/04/20 08:04:05;;;;;;;;;;;11.10;99.90;;;;;;5197352;27;19918;-67
2022/04/20 08:06:31;;;;;;;;;;;12.30;99.90;;;;;;5178607;27;19925;-67
2022/04/20 08:08:56;;;;;;;;;;;11.30;99.90;;;;;;5178356;27;19918;-66
2022/04/20 08:11:22;;;;;;;;;;;11.50;99.90;;;;;;5178485;27;19918;-65
2022/04/20 08:16:32;;;;;;;;;;;11.60;99.90;;;;;;5197112;27;19925;-65
2022/04/20 08:18:57;;;;;;;;;;;12.60;99.90;;;;;;5197108;27;19922;-67
2022/04/20 08:21:23;;;;;;;;;;;11.80;99.90;;;;;;5178571;27;19918;-67
2022/04/20 08:23:48;;;;;;;;;;;12.20;99.90;;;;;;5196975;27;19971;-65
2022/04/20 08:26:14;;;;;;;;;;;11.90;99.90;;;;;;5197342;27;19930;-65
2022/04/20 08:28:39;;;;;;;;;;;12.60;99.90;;;;;;5196967;27;19918;-67
2022/04/20 08:31:05;;;;;;;;;;;12.10;99.90;;;;;;5196501;27;20349;-66
2022/04/20 08:33:32;;;;;;;;;;;12.20;99.90;;;;;;5197247;27;19918;-65
2022/04/20 08:35:58;;;;;;;;;;;12.30;99.90;;;;;;5196840;27;19928;-66
2022/04/20 08:38:24;;;;;;;;;;;12.20;99.90;;;;;;5197177;27;20020;-67
2022/04/20 08:40:50;;;;;;;;;;;12.00;99.90;;;;;;5177962;27;20381;-66
2022/04/20 08:43:16;;;;;;;;;;;12.30;99.90;;;;;;5196783;27;19969;-67
2022/04/20 08:45:42;;;;;;;;;;;12.70;99.90;;;;;;5196755;27;20305;-65
2022/04/20 08:48:08;;;;;;;;;;;12.60;99.90;;;;;;5196748;27;20297;-66
2022/04/20 08:50:33;;;;;;;;;;;12.70;99.90;;;;;;5196655;27;19918;-67
2022/04/20 08:53:00;;;;;;;;;;;12.60;99.90;;;;;;5196681;27;19930;-66
2022/04/20 08:55:26;;;;;;;;;;;12.60;99.90;;;;;;5196639;27;19925;-66
2022/04/20 08:57:55;;;;;;;;;;;12.80;97.00;;;;;;5196648;27;20009;-66
2022/04/20 09:00:22;;;;;;;;;;;13.00;93.00;;;;;;5196589;27;19919;-67
2022/04/20 09:02:56;;;;;;;;;;;12.90;92.30;;;;;;5197450;27;19922;-66
2022/04/20 09:05:22;;;;;;;;;;;12.90;90.50;;;;;;5200973;27;19922;-68
2022/04/20 09:07:47;;;;;;;;;;;13.20;90.40;;;;;;5182086;27;19922;-66
2022/04/20 09:10:13;;;;;;;;;;;13.30;91.40;;;;;;5200379;27;19918;-66
2022/04/20 09:12:42;;;;;;;;;;;13.30;90.90;;;;;;5200689;27;19925;-68
2022/04/20 09:15:09;;;;;;;;;;;13.40;89.60;;;;;;5200659;27;19971;-66
2022/04/20 09:17:39;;;;;;;;;;;13.20;88.70;;;;;;5200712;27;19942;-67
2022/04/20 09:20:06;;;;;;;;;;;13.10;89.40;;;;;;5200684;27;19922;-68
2022/04/20 09:22:32;;;;;;;;;;;13.20;90.10;;;;;;5200656;27;19925;-69
2022/04/20 09:25:06;;;;;;;;;;;13.50;90.10;;;;;;5164608;27;20001;-67
2022/04/20 09:27:36;;;;;;;;;;;13.20;91.20;;;;;;5200442;27;19973;-66
2022/04/20 09:30:04;;;;;;;;;;;13.50;91.00;;;;;;5200272;27;20289;-66
2022/04/20 09:32:34;;;;;;;;;;;13.60;92.00;;;;;;5200437;27;20063;-69
2022/04/20 09:35:03;;;;;;;;;;;13.90;87.00;;;;;;5200297;27;19966;-68
2022/04/20 09:37:29;;;;;;;;;;;13.70;89.10;;;;;;5200279;27;19918;-65
2022/04/20 09:39:54;;;;;;;;;;;13.60;88.40;;;;;;5200224;27;19918;-66
2022/04/20 09:42:20;;;;;;;;;;;14.10;88.00;;;;;;5200158;27;19929;-66
2022/04/20 09:44:52;;;;;;;;;;;14.20;85.40;;;;;;5200058;27;19925;-66
2022/04/20 09:50:04;;;;;;;;;;;14.00;86.90;;;;;;5199925;27;20002;-66
2022/04/20 09:52:41;;;;;;;;;;;14.30;86.00;;;;;;5199694;27;19922;-68
2022/04/20 09:55:07;;;;;;;;;;;14.10;84.60;;;;;;5199946;27;19919;-65
2022/04/20 09:57:34;;;;;;;;;;;14.60;86.70;;;;;;5199912;27;19964;-66
2022/04/20 10:00:01;;;;;;;;;;;14.30;85.90;;;;;;5199852;27;20005;-68
2022/04/20 10:02:30;;;;;;;;;;;14.60;84.40;;;;;;5199734;27;19918;-66
2022/04/20 10:04:56;;;;;;;;;;;14.60;85.40;;;;;;5199718;27;20285;-66
2022/04/20 10:07:22;;;;;;;;;;;14.30;85.10;;;;;;5199359;27;20314;-66
2022/04/20 10:09:48;;;;;;;;;;;14.40;82.50;;;;;;5181074;27;19922;-68
2022/04/20 10:12:15;;;;;;;;;;;14.60;81.30;;;;;;5180666;27;19974;-67
2022/04/20 10:17:26;;;;;;;;;;;14.60;82.50;;;;;;5199477;27;20073;-67
2022/04/20 10:19:52;;;;;;;;;;;14.80;82.70;;;;;;5199369;27;19969;-68
2022/04/20 10:22:18;;;;;;;;;;;14.70;83.90;;;;;;5199413;27;20386;-67
2022/04/20 10:24:45;;;;;;;;;;;14.80;83.60;;;;;;5199310;27;19919;-68
2022/04/20 10:27:16;;;;;;;;;;;14.90;84.90;;;;;;5199292;27;19929;-69
2022/04/20 10:29:45;;;;;;;;;;;14.90;82.20;;;;;;5199294;27;20337;-68
2022/04/20 10:32:31;;;;;;;;;;;15.30;82.90;;;;;;5199159;27;19929;-67
2022/04/20 10:34:59;;;;;;;;;;;15.50;82.70;;;;;;5198057;27;19922;-68
2022/04/20 10:37:30;;;;;;;;;;;15.70;83.70;;;;;;5199066;27;19925;-66
2022/04/20 10:40:16;;;;;;;;;;;15.20;82.20;;;;;;5199201;27;20008;-67
2022/04/20 10:42:41;;;;;;;;;;;15.60;82.20;;;;;;5197907;27;19919;-68
2022/04/20 10:45:08;;;;;;;;;;;15.70;81.90;;;;;;5180439;27;20358;-66
2022/04/20 10:47:42;;;;;;;;;;;15.10;82.10;;;;;;5198915;27;19925;-67
2022/04/20 10:50:11;;;;;;;;;;;15.80;82.90;;;;;;5198465;27;20365;-67
2022/04/20 10:52:37;;;;;;;;;;;15.80;82.70;;;;;;5198838;27;19922;-67
2022/04/20 10:55:04;;;;;;;;;;;15.80;81.40;;;;;;5179989;27;19918;-66
2022/04/20 10:57:32;;;;;;;;;;;15.10;88.20;;;;;;5198745;27;20268;-66
2022/04/20 11:00:16;;;;;;;;;;;15.80;90.70;;;;;;5198675;27;20345;-66
2022/04/20 11:02:50;;;;;;;;;;;15.40;91.00;;;;;;5198545;27;19918;-67
2022/04/20 11:05:20;;;;;;;;;;;15.60;92.10;;;;;;5198478;27;20022;-66
2022/04/20 11:08:01;;;;;;;;;;;15.80;97.00;;;;;;5198437;27;20001;-66
2022/04/20 11:10:27;;;;;;;;;;;15.80;96.20;;;;;;5198434;27;20010;-67
2022/04/20 11:19:00;;;;;;;;;;;15.70;99.90;;;;;;5198330;27;19986;-64
2022/04/20 11:21:26;;;;;;;;;;;15.70;99.90;;;;;;5198343;27;20437;-65
2022/04/20 11:24:18;;;;;;;;;;;15.80;99.90;;;;;;5198157;27;19926;-66
2022/04/20 11:26:51;;;;;;;;;;;15.50;99.90;;;;;;5192760;27;19963;-67
2022/04/20 11:29:17;;;;;;;;;;;15.40;99.90;;;;;;5198081;27;19922;-69
2022/04/20 11:31:43;;;;;;;;;;;15.50;99.90;;;;;;5197879;27;19922;-65
2022/04/20 11:34:14;;;;;;;;;;;15.60;99.90;;;;;;5197905;27;19925;-67
2022/04/20 11:36:43;;;;;;;;;;;15.70;99.90;;;;;;5197973;27;19918;-66
2022/04/20 11:39:12;;;;;;;;;;;15.50;99.90;;;;;;5197816;27;19966;-67
2022/04/20 11:41:38;;;;;;;;;;;15.50;99.90;;;;;;5197794;27;20016;-68
2022/04/20 11:44:19;;;;;;;;;;;15.50;99.90;;;;;;5197734;27;19918;-66
2022/04/20 11:46:45;;;;;;;;;;;15.70;99.90;;;;;;5198091;27;19992;-67
2022/04/20 11:49:11;;;;;;;;;;;15.70;99.90;;;;;;5197683;27;20373;-66
2022/04/20 11:51:37;;;;;;;;;;;16.00;99.80;;;;;;5197628;27;20013;-67
2022/04/20 11:54:03;;;;;;;;;;;15.80;99.80;;;;;;5197585;27;19965;-66
2022/04/20 11:56:33;;;;;;;;;;;15.90;99.90;;;;;;5197523;27;19969;-67
2022/04/20 11:58:59;;;;;;;;;;;16.00;99.30;;;;;;5197457;27;20372;-66
2022/04/20 12:01:25;;;;;;;;;;;16.00;99.90;;;;;;5178727;27;19941;-65
2022/04/20 12:03:51;;;;;;;;;;;16.10;99.90;;;;;;5197386;27;19930;-65
2022/04/20 12:06:18;;;;;;;;;;;16.20;99.90;;;;;;5178833;27;19943;-67
2022/04/20 12:08:44;;;;;;;;;;;15.90;99.90;;;;;;5197272;27;19981;-65
2022/04/20 12:11:11;;;;;;;;;;;16.30;99.90;;;;;;5197204;27;19919;-65
2022/04/20 12:13:39;;;;;;;;;;;15.60;99.90;;;;;;5197154;27;20382;-66
2022/04/20 12:16:12;;;;;;;;;;;16.00;99.90;;;;;;5197181;27;19994;-67
2022/04/20 12:18:42;;;;;;;;;;;15.80;99.90;;;;;;5197122;27;19926;-65
2022/04/20 12:21:27;;;;;;;;;;;15.70;99.90;;;;;;5196989;27;19922;-67
2022/04/20 12:23:53;;;;;;;;;;;15.60;99.90;;;;;;5178537;27;19925;-67
2022/04/20 12:26:28;;;;;;;;;;;15.70;99.90;;;;;;5196949;27;19919;-66
2022/04/20 12:28:58;;;;;;;;;;;15.50;99.90;;;;;;5196923;27;19919;-65
2022/04/20 12:31:24;;;;;;;;;;;15.80;99.90;;;;;;5177804;27;20262;-66
2022/04/20 12:34:00;;;;;;;;;;;15.70;99.90;;;;;;5197185;27;19986;-65
2022/04/20 12:36:26;;;;;;;;;;;15.80;99.90;;;;;;5178221;27;19926;-68
2022/04/20 12:38:51;;;;;;;;;;;15.80;99.90;;;;;;5196400;27;20056;-67
2022/04/20 12:41:36;;;;;;;;;;;15.30;99.90;;;;;;5196845;27;20385;-68
2022/04/20 12:44:05;;;;;;;;;;;15.40;99.90;;;;;;5196759;27;20017;-65
2022/04/20 12:46:33;;;;;;;;;;;15.30;99.90;;;;;;5197073;27;19941;-66
2022/04/20 12:49:00;;;;;;;;;;;15.60;99.90;;;;;;5196823;27;19918;-66
2022/04/20 12:51:25;;;;;;;;;;;15.90;99.90;;;;;;5196664;27;20357;-69
2022/04/20 12:53:51;;;;;;;;;;;15.90;99.90;;;;;;5177962;27;19918;-68
2022/04/20 13:02:03;;;;;;;;;;;15.50;99.90;;;;;;5196658;27;20013;-68
2022/04/20 13:04:29;;;;;;;;;;;15.70;99.90;;;;;;5196724;27;20383;-67
2022/04/20 13:06:55;;;;;;;;;;;15.30;99.90;;;;;;5160450;27;20028;-68
2022/04/20 13:09:21;;;;;;;;;;;15.20;99.90;;;;;;5177773;27;19919;-65
2022/04/20 13:11:46;;;;;;;;;;;15.10;99.90;;;;;;5196448;27;19926;-68
2022/04/20 13:14:12;;;;;;;;;;;15.40;99.90;;;;;;5177627;27;19922;-67
2022/04/20 13:16:38;;;;;;;;;;;15.40;99.90;;;;;;5160223;27;20013;-70
2022/04/20 13:19:04;;;;;;;;;;;15.60;99.90;;;;;;5196414;27;19918;-67
2022/04/20 13:21:29;;;;;;;;;;;15.40;99.90;;;;;;5196663;27;20009;-66
2022/04/20 13:23:55;;;;;;;;;;;15.80;99.90;;;;;;5196450;27;20366;-68
2022/04/20 13:29:05;;;;;;;;;;;15.40;99.90;;;;;;5196470;27;19966;-67
2022/04/20 13:31:31;;;;;;;;;;;15.30;99.90;;;;;;5195746;27;19962;-69
2022/04/20 13:33:57;;;;;;;;;;;15.50;99.90;;;;;;5196330;27;20362;-67
2022/04/20 13:36:22;;;;;;;;;;;15.60;99.90;;;;;;5177748;27;20013;-66
2022/04/20 13:38:48;;;;;;;;;;;15.60;99.90;;;;;;5196335;27;19923;-68
2022/04/20 13:41:14;;;;;;;;;;;15.70;99.90;;;;;;5196277;27;20361;-69
2022/04/20 13:43:39;;;;;;;;;;;15.70;99.90;;;;;;5196231;27;19988;-71
2022/04/20 13:46:05;;;;;;;;;;;15.80;99.90;;;;;;5196165;27;20374;-66
2022/04/20 13:48:30;;;;;;;;;;;15.50;99.90;;;;;;5196136;27;19918;-69
2022/04/20 13:50:56;;;;;;;;;;;15.80;99.90;;;;;;5198611;27;19941;-67
2022/04/20 13:53:21;;;;;;;;;;;16.00;99.90;;;;;;5199950;27;19918;-67
2022/04/20 13:55:47;;;;;;;;;;;16.00;99.90;;;;;;5199915;27;19969;-66
2022/04/20 13:58:12;;;;;;;;;;;16.40;99.90;;;;;;5199491;27;19929;-67
2022/04/20 14:00:40;;;;;;;;;;;16.10;99.90;;;;;;5199903;27;20036;-71
2022/04/20 14:03:07;;;;;;;;;;;16.20;99.90;;;;;;5199814;27;20050;-67
2022/04/20 14:05:32;;;;;;;;;;;16.40;99.90;;;;;;5199811;27;19919;-71
2022/04/20 14:07:58;;;;;;;;;;;16.10;99.00;;;;;;5199681;27;20297;-66
2022/04/20 14:10:23;;;;;;;;;;;16.30;99.50;;;;;;5163566;27;19944;-68
2022/04/20 14:12:49;;;;;;;;;;;16.40;99.90;;;;;;5181130;27;19925;-70
2022/04/20 14:15:16;;;;;;;;;;;16.60;99.90;;;;;;5199559;27;19993;-72
2022/04/20 14:17:44;;;;;;;;;;;16.70;97.80;;;;;;5199543;27;19981;-68
2022/04/20 14:20:10;;;;;;;;;;;16.70;96.50;;;;;;5199507;27;19918;-69
2022/04/20 14:22:36;;;;;;;;;;;16.40;96.40;;;;;;5199313;27;19918;-71
2022/04/20 14:33:13;;;;;;;;;;;16.80;98.10;;;;;;5184840;27;19930;-68
2022/04/20 14:35:39;;;;;;;;;;;16.60;97.30;;;;;;5177735;27;19919;-67
2022/04/20 14:38:05;;;;;;;;;;;16.80;94.90;;;;;;5177717;27;20391;-67
2022/04/20 14:40:30;;;;;;;;;;;16.80;94.70;;;;;;5177635;27;20482;-66
2022/04/20 14:42:56;;;;;;;;;;;16.90;94.20;;;;;;5177527;27;19918;-67
2022/04/20 14:45:23;;;;;;;;;;;17.10;94.70;;;;;;5177239;27;19978;-66
2022/04/20 14:47:49;;;;;;;;;;;16.90;93.80;;;;;;5177638;27;19922;-65
2022/04/20 14:50:15;;;;;;;;;;;17.40;93.60;;;;;;5158934;27;19918;-67
2022/04/20 14:52:43;;;;;;;;;;;18.50;94.90;;;;;;5177444;27;20274;-67
2022/04/20 14:55:09;;;;;;;;;;;17.30;92.90;;;;;;5159036;27;19922;-67
2022/04/20 14:57:35;;;;;;;;;;;17.80;92.60;;;;;;5177299;27;19918;-67
2022/04/20 15:00:02;;;;;;;;;;;17.50;92.30;;;;;;5158505;27;19919;-67
2022/04/20 15:02:27;;;;;;;;;;;17.40;93.30;;;;;;5176856;27;20267;-68
2022/04/20 15:04:53;;;;;;;;;;;17.50;92.50;;;;;;5177255;27;19967;-66
2022/04/20 15:07:19;;;;;;;;;;;17.10;92.30;;;;;;5177129;27;19922;-65
2022/04/20 15:09:45;;;;;;;;;;;17.30;93.00;;;;;;5177172;27;19922;-67
2022/04/20 15:12:11;;;;;;;;;;;17.70;93.60;;;;;;5158081;27;20001;-68